N61557 KBOI-KSLC
Flight info
| Callsign | N61557 |
|---|---|
| Flight time | N/A |
| Altitude | VFR |
| Route | VFR |
| Aircraft | C700/M-VGDW/C |
Departure
| Time | 2026-05-06 01:23 |
|---|---|
| Airport | Boise Air Terminal/Gowen Field (KBOI) |
Arrival
| Time | N/A |
|---|---|
| Airport | Salt Lake City International Airport (KSLC) |
| Time | Latitude | Longitude | Altitude | Speed | Heading |
|---|---|---|---|---|---|
| 2026-05-06 01:20 | 43.56154 | -116.20857 | 2876 ft | 0 kts | 207° |
| 2026-05-06 01:21 | 43.56135 | -116.20870 | 2876 ft | 18 kts | 207° |
| 2026-05-06 01:21 | 43.56066 | -116.20915 | 2876 ft | 7 kts | 205° |
| 2026-05-06 01:21 | 43.55982 | -116.20969 | 2875 ft | 5 kts | 205° |
| 2026-05-06 01:21 | 43.55982 | -116.20970 | 2875 ft | 0 kts | 205° |
| 2026-05-06 01:22 | 43.55970 | -116.20977 | 2875 ft | 8 kts | 204° |
| 2026-05-06 01:22 | 43.55912 | -116.21089 | 2875 ft | 16 kts | 299° |
| 2026-05-06 01:23 | 43.55984 | -116.21272 | 2875 ft | 49 kts | 294° |
| 2026-05-06 01:23 | 43.56282 | -116.22110 | 2875 ft | 139 kts | 300° |
| 2026-05-06 01:23 | 43.56803 | -116.23568 | 2931 ft | 197 kts | 296° |
| 2026-05-06 01:23 | 43.57398 | -116.25397 | 3497 ft | 205 kts | 297° |
| 2026-05-06 01:24 | 43.57913 | -116.27133 | 3859 ft | 182 kts | 294° |
| 2026-05-06 01:24 | 43.58023 | -116.28917 | 3989 ft | 204 kts | 253° |
| 2026-05-06 01:24 | 43.57024 | -116.30286 | 4763 ft | 222 kts | 205° |
| 2026-05-06 01:24 | 43.55314 | -116.30151 | 4861 ft | 265 kts | 152° |
| 2026-05-06 01:25 | 43.54044 | -116.28618 | 5983 ft | 238 kts | 127° |
| 2026-05-06 01:25 | 43.53017 | -116.26790 | 6108 ft | 243 kts | 120° |
| 2026-05-06 01:25 | 43.52186 | -116.24973 | 6952 ft | 218 kts | 113° |
| 2026-05-06 01:25 | 43.51410 | -116.23020 | 7418 ft | 243 kts | 113° |
| 2026-05-06 01:26 | 43.50630 | -116.21068 | 8054 ft | 241 kts | 113° |
| 2026-05-06 01:26 | 43.49745 | -116.18931 | 7730 ft | 255 kts | 116° |
| 2026-05-06 01:26 | 43.48817 | -116.16980 | 7656 ft | 243 kts | 123° |
| 2026-05-06 01:26 | 43.47607 | -116.15305 | 7364 ft | 249 kts | 135° |
| 2026-05-06 01:27 | 43.46329 | -116.13784 | 7232 ft | 247 kts | 135° |
| 2026-05-06 01:27 | 43.44987 | -116.12306 | 7142 ft | 247 kts | 141° |
| 2026-05-06 01:27 | 43.43583 | -116.10925 | 7091 ft | 248 kts | 141° |
| 2026-05-06 01:27 | 43.42122 | -116.09606 | 6953 ft | 251 kts | 147° |
| 2026-05-06 01:28 | 43.40617 | -116.08405 | 6623 ft | 252 kts | 142° |
| 2026-05-06 01:28 | 43.39186 | -116.06989 | 6102 ft | 258 kts | 141° |
| 2026-05-06 01:28 | 43.37774 | -116.05524 | 5563 ft | 247 kts | 137° |
| 2026-05-06 01:28 | 43.36540 | -116.03940 | 5030 ft | 247 kts | 128° |
| 2026-05-06 01:29 | 43.35334 | -116.02243 | 5373 ft | 246 kts | 138° |
| 2026-05-06 01:29 | 43.33945 | -116.00908 | 6519 ft | 242 kts | 143° |
| 2026-05-06 01:29 | 43.32551 | -115.99610 | 7472 ft | 246 kts | 143° |
| 2026-05-06 01:29 | 43.31109 | -115.98258 | 8253 ft | 262 kts | 143° |
| 2026-05-06 01:30 | 43.29532 | -115.96751 | 8669 ft | 288 kts | 143° |
| 2026-05-06 01:30 | 43.27857 | -115.95131 | 8838 ft | 289 kts | 142° |
| 2026-05-06 01:30 | 43.26298 | -115.93629 | 8816 ft | 262 kts | 142° |
| 2026-05-06 01:30 | 43.24748 | -115.92130 | 8846 ft | 286 kts | 142° |
| 2026-05-06 01:31 | 43.23102 | -115.90532 | 8884 ft | 294 kts | 142° |
| 2026-05-06 01:31 | 43.21445 | -115.88934 | 8893 ft | 294 kts | 142° |
| 2026-05-06 01:31 | 43.19753 | -115.87309 | 8906 ft | 296 kts | 142° |
| 2026-05-06 01:31 | 43.18075 | -115.85697 | 8898 ft | 293 kts | 142° |
| 2026-05-06 01:32 | 43.16394 | -115.84075 | 8910 ft | 297 kts | 142° |
| 2026-05-06 01:32 | 43.14666 | -115.82410 | 8929 ft | 319 kts | 142° |
| 2026-05-06 01:32 | 43.12773 | -115.80567 | 8997 ft | 345 kts | 142° |
| 2026-05-06 01:32 | 43.10795 | -115.78627 | 9116 ft | 361 kts | 143° |
| 2026-05-06 01:33 | 43.08728 | -115.76588 | 9253 ft | 371 kts | 142° |
| 2026-05-06 01:33 | 43.06606 | -115.74494 | 9389 ft | 377 kts | 142° |
| 2026-05-06 01:33 | 43.04469 | -115.72384 | 9520 ft | 382 kts | 142° |
| 2026-05-06 01:33 | 43.02307 | -115.70248 | 9672 ft | 383 kts | 142° |
| 2026-05-06 01:34 | 43.00140 | -115.68108 | 9804 ft | 384 kts | 142° |
| 2026-05-06 01:34 | 42.97967 | -115.65961 | 9931 ft | 385 kts | 143° |
| 2026-05-06 01:34 | 42.95808 | -115.63825 | 10107 ft | 382 kts | 142° |
| 2026-05-06 01:34 | 42.93676 | -115.61695 | 10135 ft | 386 kts | 142° |
| 2026-05-06 01:35 | 42.91501 | -115.59519 | 10283 ft | 385 kts | 142° |
| 2026-05-06 01:35 | 42.89343 | -115.57362 | 10365 ft | 387 kts | 142° |
| 2026-05-06 01:35 | 42.87168 | -115.55187 | 10447 ft | 386 kts | 142° |
| 2026-05-06 01:35 | 42.85016 | -115.53037 | 10452 ft | 389 kts | 142° |
| 2026-05-06 01:36 | 42.82799 | -115.50824 | 10459 ft | 391 kts | 142° |
| 2026-05-06 01:36 | 42.80627 | -115.48657 | 10470 ft | 393 kts | 142° |
| 2026-05-06 01:36 | 42.78389 | -115.46417 | 10481 ft | 394 kts | 142° |
| 2026-05-06 01:36 | 42.76207 | -115.44234 | 10468 ft | 394 kts | 142° |
| 2026-05-06 01:37 | 42.74004 | -115.42030 | 10469 ft | 395 kts | 142° |
| 2026-05-06 01:37 | 42.71770 | -115.39796 | 10495 ft | 396 kts | 142° |
| 2026-05-06 01:37 | 42.69560 | -115.37584 | 10513 ft | 395 kts | 142° |
| 2026-05-06 01:37 | 42.67329 | -115.35350 | 10515 ft | 396 kts | 142° |
| 2026-05-06 01:38 | 42.65142 | -115.33164 | 10518 ft | 397 kts | 142° |
| 2026-05-06 01:38 | 42.62934 | -115.30925 | 10456 ft | 397 kts | 141° |
| 2026-05-06 01:38 | 42.60918 | -115.28644 | 10077 ft | 358 kts | 135° |
| 2026-05-06 01:38 | 42.59226 | -115.26394 | 9588 ft | 313 kts | 133° |
| 2026-05-06 01:39 | 42.57602 | -115.24305 | 8779 ft | 342 kts | 135° |
| 2026-05-06 01:39 | 42.55823 | -115.22000 | 8669 ft | 366 kts | 134° |
| 2026-05-06 01:39 | 42.54006 | -115.19627 | 9276 ft | 361 kts | 134° |
| 2026-05-06 01:39 | 42.52191 | -115.17251 | 9702 ft | 364 kts | 135° |
| 2026-05-06 01:40 | 42.50368 | -115.14859 | 9923 ft | 371 kts | 134° |
| 2026-05-06 01:40 | 42.48508 | -115.12323 | 9931 ft | 380 kts | 133° |
| 2026-05-06 01:40 | 42.46663 | -115.09746 | 9946 ft | 393 kts | 132° |
| 2026-05-06 01:40 | 42.44634 | -115.06880 | 9954 ft | 426 kts | 132° |
| 2026-05-06 01:41 | 42.42589 | -115.03979 | 9945 ft | 422 kts | 132° |
| 2026-05-06 01:41 | 42.40718 | -115.01327 | 9912 ft | 347 kts | 132° |
| 2026-05-06 01:41 | 42.39208 | -114.99207 | 9918 ft | 292 kts | 132° |
| 2026-05-06 01:41 | 42.37863 | -114.97346 | 9923 ft | 265 kts | 133° |
| 2026-05-06 01:42 | 42.36615 | -114.95593 | 9938 ft | 252 kts | 132° |
| 2026-05-06 01:42 | 42.35589 | -114.94133 | 9938 ft | 247 kts | 132° |
| 2026-05-06 01:42 | 42.34415 | -114.92473 | 9950 ft | 243 kts | 132° |
| 2026-05-06 01:42 | 42.33249 | -114.90830 | 9956 ft | 241 kts | 132° |
| 2026-05-06 01:43 | 42.32030 | -114.89092 | 9979 ft | 274 kts | 132° |
| 2026-05-06 01:43 | 42.30660 | -114.87126 | 9976 ft | 305 kts | 132° |
| 2026-05-06 01:43 | 42.29127 | -114.84918 | 9978 ft | 338 kts | 132° |
| 2026-05-06 01:43 | 42.27441 | -114.82495 | 9944 ft | 363 kts | 132° |
| 2026-05-06 01:44 | 42.25720 | -114.80016 | 9925 ft | 365 kts | 132° |
| 2026-05-06 01:44 | 42.23976 | -114.77494 | 9925 ft | 366 kts | 132° |
| 2026-05-06 01:44 | 42.22236 | -114.74982 | 9916 ft | 364 kts | 132° |
| 2026-05-06 01:44 | 42.20509 | -114.72492 | 9916 ft | 363 kts | 132° |
| 2026-05-06 01:45 | 42.18803 | -114.70031 | 9913 ft | 362 kts | 132° |
| 2026-05-06 01:45 | 42.17087 | -114.67556 | 9908 ft | 362 kts | 132° |
| 2026-05-06 01:45 | 42.15364 | -114.65068 | 9909 ft | 363 kts | 132° |
| 2026-05-06 01:45 | 42.13630 | -114.62560 | 9910 ft | 366 kts | 131° |
| 2026-05-06 01:46 | 42.11889 | -114.60037 | 9913 ft | 366 kts | 132° |
| 2026-05-06 01:46 | 42.10159 | -114.57562 | 9908 ft | 362 kts | 133° |
| 2026-05-06 01:46 | 42.08415 | -114.55063 | 9908 ft | 363 kts | 132° |
| 2026-05-06 01:46 | 42.06693 | -114.52579 | 9908 ft | 366 kts | 132° |
| 2026-05-06 01:47 | 42.04961 | -114.50068 | 9932 ft | 365 kts | 130° |
| 2026-05-06 01:47 | 42.03516 | -114.47340 | 9927 ft | 361 kts | 118° |
| 2026-05-06 01:47 | 42.02380 | -114.44349 | 9920 ft | 358 kts | 114° |
| 2026-05-06 01:47 | 42.01258 | -114.41353 | 9936 ft | 361 kts | 116° |
| 2026-05-06 01:48 | 41.99963 | -114.38441 | 9950 ft | 364 kts | 121° |
| 2026-05-06 01:48 | 41.98577 | -114.35562 | 9956 ft | 368 kts | 121° |
| 2026-05-06 01:48 | 41.97248 | -114.32621 | 9955 ft | 368 kts | 118° |
| 2026-05-06 01:48 | 41.95965 | -114.29641 | 9947 ft | 367 kts | 117° |
| 2026-05-06 01:49 | 41.94687 | -114.26739 | 9945 ft | 363 kts | 118° |
| 2026-05-06 01:49 | 41.93359 | -114.23811 | 9951 ft | 363 kts | 119° |
| 2026-05-06 01:49 | 41.92042 | -114.20906 | 9946 ft | 367 kts | 118° |
| 2026-05-06 01:49 | 41.90731 | -114.17972 | 9957 ft | 366 kts | 118° |
| 2026-05-06 01:50 | 41.89422 | -114.15065 | 9960 ft | 364 kts | 118° |
| 2026-05-06 01:50 | 41.88114 | -114.12154 | 9959 ft | 363 kts | 118° |
| 2026-05-06 01:50 | 41.86792 | -114.09205 | 9961 ft | 380 kts | 118° |
| 2026-05-06 01:50 | 41.85384 | -114.06068 | 9981 ft | 396 kts | 120° |
| 2026-05-06 01:51 | 41.83960 | -114.02931 | 9963 ft | 392 kts | 120° |
| 2026-05-06 01:51 | 41.82571 | -113.99845 | 9950 ft | 387 kts | 118° |
| 2026-05-06 01:51 | 41.81196 | -113.96779 | 9963 ft | 385 kts | 120° |
| 2026-05-06 01:51 | 41.79771 | -113.93687 | 9965 ft | 391 kts | 119° |
| 2026-05-06 01:52 | 41.78387 | -113.90595 | 9970 ft | 390 kts | 118° |
| 2026-05-06 01:52 | 41.76974 | -113.87442 | 9958 ft | 392 kts | 119° |
| 2026-05-06 01:52 | 41.75545 | -113.84324 | 9966 ft | 391 kts | 120° |
| 2026-05-06 01:52 | 41.74118 | -113.81206 | 9951 ft | 392 kts | 119° |
| 2026-05-06 01:53 | 41.72713 | -113.78099 | 9964 ft | 392 kts | 119° |
| 2026-05-06 01:53 | 41.71310 | -113.75002 | 9953 ft | 394 kts | 118° |
| 2026-05-06 01:53 | 41.69901 | -113.71893 | 9958 ft | 383 kts | 120° |
| 2026-05-06 01:53 | 41.68495 | -113.68817 | 9954 ft | 393 kts | 119° |
| 2026-05-06 01:54 | 41.67060 | -113.65680 | 9950 ft | 392 kts | 120° |
| 2026-05-06 01:54 | 41.65648 | -113.62596 | 9939 ft | 388 kts | 119° |
| 2026-05-06 01:54 | 41.64253 | -113.59524 | 9935 ft | 385 kts | 119° |
| 2026-05-06 01:54 | 41.62841 | -113.56456 | 9936 ft | 387 kts | 120° |
| 2026-05-06 01:55 | 41.61448 | -113.53441 | 9926 ft | 386 kts | 120° |
| 2026-05-06 01:55 | 41.60042 | -113.50371 | 9926 ft | 387 kts | 120° |
| 2026-05-06 01:55 | 41.58615 | -113.47250 | 9911 ft | 389 kts | 120° |
| 2026-05-06 01:55 | 41.57218 | -113.44219 | 9911 ft | 390 kts | 120° |
| 2026-05-06 01:56 | 41.55796 | -113.41149 | 9920 ft | 385 kts | 120° |
| 2026-05-06 01:56 | 41.54401 | -113.38105 | 9920 ft | 382 kts | 120° |
| 2026-05-06 01:56 | 41.53008 | -113.35068 | 9910 ft | 385 kts | 120° |
| 2026-05-06 01:56 | 41.51601 | -113.32023 | 9911 ft | 386 kts | 120° |
| 2026-05-06 01:57 | 41.50176 | -113.28949 | 9910 ft | 385 kts | 120° |
| 2026-05-06 01:57 | 41.48794 | -113.25958 | 9911 ft | 385 kts | 120° |
| 2026-05-06 01:57 | 41.47385 | -113.22911 | 9903 ft | 385 kts | 120° |
| 2026-05-06 01:57 | 41.45978 | -113.19875 | 9905 ft | 385 kts | 120° |
| 2026-05-06 01:58 | 41.44568 | -113.16840 | 9912 ft | 384 kts | 120° |
| 2026-05-06 01:58 | 41.43178 | -113.13842 | 9907 ft | 383 kts | 120° |
| 2026-05-06 01:58 | 41.41758 | -113.10786 | 9891 ft | 386 kts | 120° |
| 2026-05-06 01:58 | 41.40358 | -113.07766 | 9890 ft | 388 kts | 119° |
| 2026-05-06 01:59 | 41.38930 | -113.04704 | 9895 ft | 391 kts | 119° |
| 2026-05-06 01:59 | 41.37491 | -113.01631 | 9903 ft | 389 kts | 119° |
| 2026-05-06 01:59 | 41.36061 | -112.98569 | 9901 ft | 387 kts | 119° |
| 2026-05-06 01:59 | 41.34644 | -112.95530 | 9894 ft | 387 kts | 119° |
| 2026-05-06 02:00 | 41.33216 | -112.92474 | 9894 ft | 389 kts | 120° |
| 2026-05-06 02:00 | 41.31779 | -112.89422 | 9900 ft | 390 kts | 119° |
| 2026-05-06 02:00 | 41.30348 | -112.86356 | 9901 ft | 390 kts | 119° |
| 2026-05-06 02:00 | 41.28932 | -112.83329 | 9894 ft | 388 kts | 119° |
| 2026-05-06 02:01 | 41.27495 | -112.80272 | 9893 ft | 385 kts | 119° |
| 2026-05-06 02:01 | 41.26080 | -112.77263 | 9909 ft | 386 kts | 120° |
| 2026-05-06 02:01 | 41.24654 | -112.74232 | 9909 ft | 389 kts | 120° |
| 2026-05-06 02:01 | 41.23220 | -112.71184 | 9900 ft | 389 kts | 120° |
| 2026-05-06 02:02 | 41.21786 | -112.68141 | 9900 ft | 388 kts | 120° |
| 2026-05-06 02:02 | 41.20350 | -112.65100 | 9905 ft | 387 kts | 120° |
| 2026-05-06 02:02 | 41.18922 | -112.62077 | 9905 ft | 387 kts | 120° |
| 2026-05-06 02:02 | 41.17488 | -112.59043 | 9905 ft | 387 kts | 120° |
| 2026-05-06 02:03 | 41.16053 | -112.56010 | 9897 ft | 388 kts | 120° |
| 2026-05-06 02:03 | 41.14617 | -112.52977 | 9898 ft | 389 kts | 120° |
| 2026-05-06 02:03 | 41.13170 | -112.49928 | 9898 ft | 389 kts | 120° |
| 2026-05-06 02:03 | 41.11739 | -112.46915 | 9901 ft | 389 kts | 120° |
| 2026-05-06 02:04 | 41.10322 | -112.43934 | 9862 ft | 367 kts | 120° |
| 2026-05-06 02:04 | 41.09012 | -112.41190 | 9614 ft | 339 kts | 120° |
| 2026-05-06 02:04 | 41.07800 | -112.38642 | 9507 ft | 312 kts | 120° |
| 2026-05-06 02:04 | 41.06680 | -112.36286 | 9086 ft | 300 kts | 120° |
| 2026-05-06 02:05 | 41.05569 | -112.33946 | 8479 ft | 298 kts | 120° |
| 2026-05-06 02:05 | 41.04469 | -112.31642 | 7941 ft | 293 kts | 121° |
| 2026-05-06 02:05 | 41.03386 | -112.29376 | 7396 ft | 289 kts | 121° |
| 2026-05-06 02:05 | 41.02334 | -112.27173 | 6867 ft | 285 kts | 121° |
| 2026-05-06 02:06 | 41.01275 | -112.24958 | 6315 ft | 282 kts | 122° |
| 2026-05-06 02:06 | 41.00232 | -112.22780 | 5946 ft | 273 kts | 122° |
| 2026-05-06 02:06 | 40.99228 | -112.20682 | 5945 ft | 267 kts | 122° |
| 2026-05-06 02:06 | 40.98232 | -112.18601 | 5953 ft | 273 kts | 122° |
| 2026-05-06 02:07 | 40.97208 | -112.16468 | 5963 ft | 280 kts | 122° |
| 2026-05-06 02:07 | 40.96162 | -112.14287 | 5963 ft | 282 kts | 122° |
| 2026-05-06 02:07 | 40.95110 | -112.12091 | 5969 ft | 280 kts | 123° |
| 2026-05-06 02:07 | 40.94072 | -112.09931 | 5966 ft | 275 kts | 123° |
| 2026-05-06 02:08 | 40.93050 | -112.07813 | 5962 ft | 272 kts | 123° |
| 2026-05-06 02:08 | 40.92060 | -112.05753 | 5964 ft | 257 kts | 123° |
| 2026-05-06 02:08 | 40.91130 | -112.03860 | 5968 ft | 238 kts | 128° |
| 2026-05-06 02:08 | 40.90034 | -112.02367 | 5970 ft | 218 kts | 142° |
| 2026-05-06 02:09 | 40.88778 | -112.01342 | 5978 ft | 210 kts | 156° |
| 2026-05-06 02:09 | 40.87401 | -112.00745 | 5983 ft | 211 kts | 168° |
| 2026-05-06 02:09 | 40.85914 | -112.00535 | 5979 ft | 217 kts | 176° |
| 2026-05-06 02:09 | 40.84335 | -112.00361 | 5527 ft | 235 kts | 175° |
| 2026-05-06 02:10 | 40.82672 | -112.00147 | 4888 ft | 245 kts | 175° |
| 2026-05-06 02:10 | 40.81005 | -111.99948 | 4500 ft | 212 kts | 175° |